createdAt,value
2022-11-13T00:00:32.330Z,10.90
2022-11-13T00:03:19.324Z,10.90
2022-11-13T00:06:06.726Z,10.90
2022-11-13T00:08:55.686Z,10.90
2022-11-13T00:11:42.375Z,10.90
2022-11-13T00:14:30.623Z,10.90
2022-11-13T00:17:17.455Z,10.90
2022-11-13T00:20:04.776Z,10.90
2022-11-13T00:22:51.814Z,10.90
2022-11-13T00:25:39.363Z,10.90
2022-11-13T00:28:26.318Z,10.90
2022-11-13T00:31:16.542Z,10.90
2022-11-13T00:34:26.060Z,10.90
2022-11-13T00:37:09.580Z,10.90
2022-11-13T00:39:59.659Z,10.90
2022-11-13T00:42:46.685Z,11.00
2022-11-13T00:45:33.042Z,10.90
2022-11-13T00:48:20.927Z,10.90
2022-11-13T00:51:07.604Z,10.90
2022-11-13T00:53:54.673Z,10.90
2022-11-13T00:56:41.566Z,10.90
2022-11-13T00:59:28.524Z,10.90
2022-11-13T01:02:16.042Z,10.90
2022-11-13T01:05:04.578Z,11.00
2022-11-13T01:07:51.462Z,10.90
2022-11-13T01:10:42.288Z,10.80
2022-11-13T01:13:29.180Z,10.80
2022-11-13T01:16:16.853Z,10.80
2022-11-13T01:19:03.446Z,10.80
2022-11-13T01:21:51.777Z,10.80
2022-11-13T01:24:38.990Z,10.80
2022-11-13T01:27:25.930Z,10.70
2022-11-13T01:30:13.124Z,10.80
2022-11-13T01:33:00.099Z,10.80
2022-11-13T01:35:47.195Z,10.80
2022-11-13T01:38:37.222Z,10.80
2022-11-13T01:41:26.257Z,10.80
2022-11-13T01:44:15.431Z,10.80
2022-11-13T01:47:04.511Z,10.70
2022-11-13T01:49:54.089Z,10.80
2022-11-13T01:52:43.435Z,10.80
2022-11-13T01:55:31.669Z,10.70
2022-11-13T01:58:18.519Z,10.70
2022-11-13T02:01:05.610Z,10.70
2022-11-13T02:03:52.590Z,10.70
2022-11-13T02:06:43.786Z,10.80
2022-11-13T02:09:32.691Z,10.70
2022-11-13T02:12:26.504Z,10.60
2022-11-13T02:15:13.906Z,10.70
2022-11-13T02:18:03.734Z,10.80
2022-11-13T02:20:58.950Z,10.80
2022-11-13T02:23:51.862Z,10.80
2022-11-13T02:26:40.970Z,10.80
2022-11-13T02:29:27.886Z,10.80
2022-11-13T02:32:14.796Z,10.80
2022-11-13T02:35:01.568Z,10.80
2022-11-13T02:37:48.532Z,10.70
2022-11-13T02:40:35.137Z,10.80
2022-11-13T02:43:23.179Z,10.70
2022-11-13T02:46:10.221Z,10.70
2022-11-13T02:48:57.054Z,10.70
2022-11-13T02:51:43.858Z,10.80
2022-11-13T02:54:30.921Z,10.80
2022-11-13T02:57:17.459Z,10.70
2022-11-13T03:00:10.706Z,10.70
2022-11-13T03:03:00.301Z,10.70
2022-11-13T03:05:50.155Z,10.70
2022-11-13T03:08:37.616Z,10.80
2022-11-13T03:11:24.518Z,10.80
2022-11-13T03:14:11.547Z,10.80
2022-11-13T03:16:59.325Z,10.70
2022-11-13T03:19:45.818Z,10.70
2022-11-13T03:22:32.761Z,10.70
2022-11-13T03:25:19.137Z,10.70
2022-11-13T03:28:06.106Z,10.70
2022-11-13T03:30:52.708Z,10.70
2022-11-13T03:33:40.398Z,10.70
2022-11-13T03:36:27.072Z,10.70
2022-11-13T03:39:14.125Z,10.70
2022-11-13T03:42:01.044Z,10.70
2022-11-13T03:44:48.045Z,10.70
2022-11-13T03:47:35.017Z,10.70
2022-11-13T03:50:22.716Z,10.70
2022-11-13T03:53:09.572Z,10.70
2022-11-13T03:55:56.790Z,10.70
2022-11-13T03:58:48.414Z,10.60
2022-11-13T04:01:36.297Z,10.60
2022-11-13T04:04:23.350Z,10.60
2022-11-13T04:07:11.516Z,10.60
2022-11-13T04:09:58.470Z,10.50
2022-11-13T04:12:45.517Z,10.50
2022-11-13T04:15:32.481Z,10.50
2022-11-13T04:18:18.901Z,10.50
2022-11-13T04:21:06.717Z,10.50
2022-11-13T04:23:54.878Z,10.50
2022-11-13T04:26:41.325Z,10.50
2022-11-13T04:29:27.871Z,10.60
2022-11-13T04:32:14.202Z,10.60
2022-11-13T04:35:01.235Z,10.60
2022-11-13T04:37:47.786Z,10.60
2022-11-13T04:40:36.017Z,10.60
2022-11-13T04:43:21.384Z,10.60
2022-11-13T04:46:10.772Z,10.50
2022-11-13T04:48:57.401Z,10.60
2022-11-13T04:51:44.215Z,10.60
2022-11-13T04:54:31.237Z,10.60
2022-11-13T04:57:19.399Z,10.50
2022-11-13T05:00:07.475Z,10.50
2022-11-13T05:02:54.216Z,10.40
2022-11-13T05:05:40.821Z,10.40
2022-11-13T05:08:27.320Z,10.40
2022-11-13T05:11:14.073Z,10.40
2022-11-13T05:14:03.596Z,10.40
2022-11-13T05:16:51.721Z,10.40
2022-11-13T05:19:38.418Z,10.40
2022-11-13T05:22:25.208Z,10.40
2022-11-13T05:25:11.909Z,10.40
2022-11-13T05:27:59.465Z,10.40
2022-11-13T05:30:47.514Z,10.40
2022-11-13T05:33:34.271Z,10.40
2022-11-13T05:36:21.644Z,10.40
2022-11-13T05:39:08.217Z,10.50
2022-11-13T05:41:54.773Z,10.50
2022-11-13T05:44:41.613Z,10.50
2022-11-13T05:47:29.263Z,10.50
2022-11-13T05:50:16.734Z,10.50
2022-11-13T05:53:03.419Z,10.60
2022-11-13T05:55:49.758Z,10.50
2022-11-13T05:58:37.418Z,10.60
2022-11-13T06:01:26.237Z,10.50
2022-11-13T06:04:14.365Z,10.50
2022-11-13T06:07:00.972Z,10.50
2022-11-13T06:09:47.949Z,10.50
2022-11-13T06:12:34.409Z,10.50
2022-11-13T06:15:20.722Z,10.50
2022-11-13T06:18:07.592Z,10.50
2022-11-13T06:20:56.049Z,10.50
2022-11-13T06:23:43.407Z,10.50
2022-11-13T06:26:32.705Z,10.60
2022-11-13T06:29:19.626Z,10.70
2022-11-13T06:32:06.707Z,10.70
2022-11-13T06:34:53.296Z,10.70
2022-11-13T06:37:41.506Z,10.70
2022-11-13T06:40:27.995Z,10.70
2022-11-13T06:43:14.717Z,10.70
2022-11-13T06:46:05.481Z,10.70
2022-11-13T06:48:52.685Z,10.70
2022-11-13T06:51:42.786Z,10.70
2022-11-13T06:54:31.008Z,10.80
2022-11-13T06:57:17.394Z,10.80
2022-11-13T07:00:06.099Z,10.80
2022-11-13T07:02:53.451Z,10.90
2022-11-13T07:05:39.694Z,10.90
2022-11-13T07:08:26.360Z,10.90
2022-11-13T07:11:16.952Z,11.00
2022-11-13T07:14:03.340Z,11.00
2022-11-13T07:17:08.446Z,11.10
2022-11-13T07:19:56.064Z,11.10
2022-11-13T07:22:42.560Z,11.10
2022-11-13T07:25:30.007Z,11.10
2022-11-13T07:28:17.602Z,11.10
2022-11-13T07:31:05.371Z,11.10
2022-11-13T07:33:52.747Z,11.10
2022-11-13T07:36:39.385Z,11.10
2022-11-13T07:39:25.768Z,11.20
2022-11-13T07:42:12.407Z,11.10
2022-11-13T07:45:00.779Z,11.20
2022-11-13T07:47:47.312Z,11.20
2022-11-13T07:50:36.398Z,11.20
2022-11-13T07:53:23.727Z,11.20
2022-11-13T07:56:11.603Z,11.20
2022-11-13T07:58:57.909Z,11.20
2022-11-13T08:01:45.769Z,11.30
2022-11-13T08:04:32.743Z,11.20
2022-11-13T08:07:19.650Z,11.20
2022-11-13T08:10:07.947Z,11.30
2022-11-13T08:13:00.537Z,11.30
2022-11-13T08:15:47.393Z,11.30
2022-11-13T08:18:35.216Z,11.40
2022-11-13T08:21:22.202Z,11.40
2022-11-13T08:24:10.247Z,11.40
2022-11-13T08:26:57.309Z,11.40
2022-11-13T08:29:43.957Z,11.30
2022-11-13T08:32:30.392Z,11.40
2022-11-13T08:35:19.981Z,11.40
2022-11-13T08:38:09.894Z,11.50
2022-11-13T08:40:58.487Z,11.50
2022-11-13T08:43:45.485Z,11.50
2022-11-13T08:46:31.967Z,11.50
2022-11-13T08:49:18.527Z,11.60
2022-11-13T08:52:06.419Z,11.60
2022-11-13T08:54:53.495Z,11.60
2022-11-13T08:57:41.036Z,11.70
2022-11-13T09:00:27.765Z,11.60
2022-11-13T09:03:14.605Z,11.60
2022-11-13T09:06:01.717Z,11.70
2022-11-13T09:08:49.419Z,11.70
2022-11-13T09:11:36.106Z,11.70
2022-11-13T09:14:25.038Z,11.60
2022-11-13T09:17:12.093Z,11.60
2022-11-13T09:20:03.733Z,11.50
2022-11-13T09:22:57.695Z,11.50
2022-11-13T09:25:45.410Z,11.60
2022-11-13T09:28:32.102Z,11.60
2022-11-13T09:31:18.942Z,11.60
2022-11-13T09:34:05.296Z,11.60
2022-11-13T09:36:52.465Z,11.60
2022-11-13T09:39:39.147Z,11.50
2022-11-13T09:42:30.761Z,11.60
2022-11-13T09:45:18.458Z,11.60
2022-11-13T09:48:15.573Z,11.60
2022-11-13T09:51:07.467Z,11.60
2022-11-13T09:53:54.396Z,11.60
2022-11-13T09:56:44.271Z,11.60
2022-11-13T09:59:38.105Z,11.50
2022-11-13T10:02:34.847Z,11.50
2022-11-13T10:05:27.515Z,11.60
2022-11-13T10:08:18.182Z,11.60
2022-11-13T10:11:16.087Z,11.50
2022-11-13T10:14:06.115Z,11.50
2022-11-13T10:16:57.479Z,11.60
2022-11-13T10:19:54.495Z,11.60
2022-11-13T10:22:45.589Z,11.60
2022-11-13T10:25:36.930Z,11.60
2022-11-13T10:31:43.013Z,11.60
2022-11-13T10:34:30.625Z,11.60
2022-11-13T10:37:35.852Z,11.70
2022-11-13T10:40:27.204Z,11.60
2022-11-13T10:43:16.352Z,11.60
2022-11-13T10:46:04.981Z,11.60
2022-11-13T10:48:51.855Z,11.60
2022-11-13T10:51:40.302Z,11.60
2022-11-13T10:54:29.169Z,11.60
2022-11-13T10:57:26.251Z,11.60
2022-11-13T11:00:23.458Z,11.60
2022-11-13T11:03:14.332Z,11.60
2022-11-13T11:06:03.188Z,11.60
2022-11-13T11:08:51.153Z,11.60
2022-11-13T11:11:55.530Z,11.70
2022-11-13T11:14:46.713Z,11.60
2022-11-13T11:17:42.651Z,11.70
2022-11-13T11:20:42.308Z,11.70
2022-11-13T11:23:40.786Z,11.70
2022-11-13T11:26:33.909Z,11.80
2022-11-13T11:29:27.796Z,11.80
2022-11-13T11:32:20.077Z,11.80
2022-11-13T11:35:14.651Z,11.80
2022-11-13T11:38:06.897Z,11.80
2022-11-13T11:40:56.646Z,11.80
2022-11-13T11:43:48.671Z,11.70
2022-11-13T11:46:37.284Z,11.70
2022-11-13T11:49:27.668Z,11.60
2022-11-13T11:52:35.474Z,11.60
2022-11-13T11:55:43.064Z,11.60
2022-11-13T11:58:55.296Z,11.60
2022-11-13T12:01:58.274Z,11.60
2022-11-13T12:05:01.846Z,11.70
2022-11-13T12:07:57.563Z,11.70
2022-11-13T12:10:49.581Z,11.70
2022-11-13T12:13:46.426Z,11.80
2022-11-13T12:16:41.357Z,11.80
2022-11-13T12:19:38.315Z,11.80
2022-11-13T12:22:32.093Z,11.90
2022-11-13T12:25:25.610Z,12.00
2022-11-13T12:28:24.433Z,12.00
2022-11-13T12:31:39.352Z,12.10
2022-11-13T12:34:32.503Z,12.00
2022-11-13T12:37:26.510Z,12.00
2022-11-13T12:40:28.459Z,12.00
2022-11-13T12:43:36.196Z,12.10
2022-11-13T12:46:23.589Z,12.10
2022-11-13T12:49:26.804Z,12.10
2022-11-13T12:52:24.146Z,12.10
2022-11-13T12:55:27.118Z,12.10
2022-11-13T12:58:21.281Z,12.10
2022-11-13T13:01:17.865Z,12.10
2022-11-13T13:04:30.886Z,12.10
2022-11-13T13:07:32.602Z,12.10
2022-11-13T13:10:27.047Z,12.10
2022-11-13T13:13:23.991Z,12.10
2022-11-13T13:16:12.144Z,12.00
2022-11-13T13:19:09.340Z,12.00
2022-11-13T13:21:57.059Z,11.90
2022-11-13T13:24:45.174Z,12.00
2022-11-13T13:27:37.150Z,12.00
2022-11-13T13:30:26.404Z,12.00
2022-11-13T13:33:22.234Z,12.00
2022-11-13T13:36:22.933Z,11.90
2022-11-13T13:39:28.930Z,11.90
2022-11-13T13:42:32.646Z,11.90
2022-11-13T13:45:31.082Z,11.90
2022-11-13T13:48:22.604Z,11.90
2022-11-13T13:51:18.078Z,11.90
2022-11-13T13:54:09.338Z,11.90
2022-11-13T13:56:58.794Z,11.90
2022-11-13T13:59:46.878Z,11.90
2022-11-13T14:02:33.762Z,11.90
2022-11-13T14:05:29.836Z,11.90
2022-11-13T14:08:18.660Z,11.90
2022-11-13T14:11:16.829Z,11.90
2022-11-13T14:14:10.711Z,11.90
2022-11-13T14:17:01.795Z,11.90
2022-11-13T14:19:51.498Z,11.80
2022-11-13T14:22:38.549Z,11.80
2022-11-13T14:25:27.407Z,11.80
2022-11-13T14:28:17.023Z,11.70
2022-11-13T14:31:06.836Z,11.70
2022-11-13T14:33:55.386Z,11.60
2022-11-13T14:36:42.072Z,11.40
2022-11-13T14:39:32.387Z,11.50
2022-11-13T14:42:22.760Z,11.40
2022-11-13T14:45:17.842Z,11.30
2022-11-13T14:48:18.406Z,11.40
2022-11-13T14:51:08.647Z,11.40
2022-11-13T14:54:01.390Z,11.40
2022-11-13T14:56:50.584Z,11.40
2022-11-13T14:59:38.517Z,11.40
2022-11-13T15:02:25.258Z,11.40
2022-11-13T15:05:14.784Z,11.50
2022-11-13T15:08:03.241Z,11.40
2022-11-13T15:10:50.056Z,11.50
2022-11-13T15:13:36.756Z,11.50
2022-11-13T15:16:26.113Z,11.50
2022-11-13T15:19:17.566Z,11.40
2022-11-13T15:25:16.622Z,11.40
2022-11-13T15:28:03.879Z,11.30
2022-11-13T15:30:50.811Z,11.30
2022-11-13T15:33:37.811Z,11.40
2022-11-13T15:36:24.768Z,11.50
2022-11-13T15:39:22.758Z,11.60
2022-11-13T15:42:16.342Z,11.60
2022-11-13T15:45:05.959Z,11.50
2022-11-13T15:47:52.579Z,11.50
2022-11-13T15:50:41.295Z,11.40
2022-11-13T15:53:28.052Z,11.30
2022-11-13T15:56:14.816Z,11.40
2022-11-13T15:59:02.912Z,11.40
2022-11-13T16:01:58.486Z,11.50
2022-11-13T16:04:55.918Z,11.50
2022-11-13T16:07:44.182Z,11.60
2022-11-13T16:10:30.999Z,11.60
2022-11-13T16:13:17.285Z,11.70
2022-11-13T16:16:05.860Z,11.70
2022-11-13T16:18:57.286Z,11.70
2022-11-13T16:21:46.524Z,11.70
2022-11-13T16:24:33.075Z,11.70
2022-11-13T16:27:25.802Z,11.70
2022-11-13T16:30:17.519Z,11.70
2022-11-13T16:33:09.187Z,11.60
2022-11-13T16:35:56.072Z,11.50
2022-11-13T16:38:43.027Z,11.60
2022-11-13T16:41:31.736Z,11.60
2022-11-13T16:44:18.816Z,11.50
2022-11-13T16:47:06.701Z,11.50
2022-11-13T16:49:54.766Z,11.50
2022-11-13T16:52:41.387Z,11.60
2022-11-13T16:55:27.905Z,11.60
2022-11-13T16:58:15.226Z,11.60
2022-11-13T17:01:02.026Z,11.60
2022-11-13T17:03:49.107Z,11.70
2022-11-13T17:06:37.992Z,11.70
2022-11-13T17:09:24.540Z,11.70
2022-11-13T17:12:11.763Z,11.70
2022-11-13T17:14:58.244Z,11.80
2022-11-13T17:17:44.748Z,11.70
2022-11-13T17:20:31.259Z,11.70
2022-11-13T17:23:19.518Z,11.70
2022-11-13T17:26:07.317Z,11.70
2022-11-13T17:28:54.259Z,11.70
2022-11-13T17:31:41.012Z,11.70
2022-11-13T17:34:27.688Z,11.70
2022-11-13T17:37:14.333Z,11.80
2022-11-13T17:40:02.332Z,11.80
2022-11-13T17:42:49.589Z,11.80
2022-11-13T17:45:37.483Z,11.70
2022-11-13T17:48:24.310Z,11.70
2022-11-13T17:51:13.696Z,11.70
2022-11-13T17:54:00.681Z,11.80
2022-11-13T17:56:48.751Z,11.70
2022-11-13T17:59:35.331Z,11.80
2022-11-13T18:02:21.636Z,11.80
2022-11-13T18:05:10.041Z,11.80
2022-11-13T18:07:56.992Z,11.80
2022-11-13T18:10:44.260Z,11.80
2022-11-13T18:13:32.380Z,11.90
2022-11-13T18:16:22.958Z,11.90
2022-11-13T18:19:09.705Z,11.90
2022-11-13T18:21:56.507Z,11.90
2022-11-13T18:24:43.348Z,11.90
2022-11-13T18:27:32.246Z,11.80
2022-11-13T18:30:20.977Z,11.80
2022-11-13T18:33:07.625Z,11.90
2022-11-13T18:35:56.710Z,11.90
2022-11-13T18:38:44.157Z,11.80
2022-11-13T18:41:32.604Z,11.80
2022-11-13T18:44:19.280Z,11.80
2022-11-13T18:47:07.524Z,11.80
2022-11-13T18:49:54.776Z,11.80
2022-11-13T18:52:43.352Z,11.70
2022-11-13T18:55:29.908Z,11.70
2022-11-13T18:58:18.694Z,11.60
2022-11-13T19:01:17.391Z,11.60
2022-11-13T19:04:25.645Z,11.60
2022-11-13T19:07:12.633Z,11.60
2022-11-13T19:09:59.534Z,11.60
2022-11-13T19:12:48.129Z,11.60
2022-11-13T19:15:37.688Z,11.50
2022-11-13T19:18:24.351Z,11.50
2022-11-13T19:21:19.746Z,11.50
2022-11-13T19:24:07.154Z,11.50
2022-11-13T19:26:53.880Z,11.50
2022-11-13T19:29:41.147Z,11.50
2022-11-13T19:32:28.453Z,11.50
2022-11-13T19:35:15.720Z,11.50
2022-11-13T19:38:03.948Z,11.40
2022-11-13T19:40:51.552Z,11.40
2022-11-13T19:43:40.235Z,11.40
2022-11-13T19:46:27.093Z,11.30
2022-11-13T19:49:13.941Z,11.30
2022-11-13T19:52:00.336Z,11.30
2022-11-13T19:54:48.070Z,11.20
2022-11-13T19:57:35.093Z,11.20
2022-11-13T20:00:21.973Z,11.20
2022-11-13T20:03:08.232Z,11.10
2022-11-13T20:05:56.014Z,11.10
2022-11-13T20:08:43.211Z,11.00
2022-11-13T20:11:32.296Z,11.10
2022-11-13T20:14:19.125Z,11.00
2022-11-13T20:17:06.506Z,11.00
2022-11-13T20:19:53.234Z,11.00
2022-11-13T20:22:40.161Z,10.90
2022-11-13T20:25:26.664Z,10.90
2022-11-13T20:28:14.943Z,10.90
2022-11-13T20:31:07.048Z,10.90
2022-11-13T20:33:55.992Z,10.90
2022-11-13T20:36:42.312Z,10.90
2022-11-13T20:39:28.767Z,10.90
2022-11-13T20:42:15.605Z,10.80
2022-11-13T20:45:04.000Z,10.80
2022-11-13T20:47:50.808Z,10.80
2022-11-13T20:50:38.600Z,10.80
2022-11-13T20:53:25.389Z,10.80
2022-11-13T20:56:13.183Z,10.80
2022-11-13T20:58:59.666Z,10.80
2022-11-13T21:01:47.680Z,10.80
2022-11-13T21:04:34.485Z,10.80
2022-11-13T21:07:21.112Z,10.70
2022-11-13T21:10:08.674Z,10.70
2022-11-13T21:12:56.075Z,10.70
2022-11-13T21:15:42.736Z,10.70
2022-11-13T21:18:31.939Z,10.80
2022-11-13T21:21:20.653Z,10.80
2022-11-13T21:24:08.047Z,10.80
2022-11-13T21:26:54.682Z,10.80
2022-11-13T21:29:41.630Z,10.80
2022-11-13T21:32:28.536Z,10.80
2022-11-13T21:35:22.317Z,10.80
2022-11-13T21:38:09.329Z,10.90
2022-11-13T21:41:14.003Z,11.00
2022-11-13T21:44:03.348Z,10.90
2022-11-13T21:46:50.016Z,11.00
2022-11-13T21:49:36.583Z,11.00
2022-11-13T21:52:24.525Z,10.90
2022-11-13T21:55:11.817Z,11.00
2022-11-13T21:57:58.470Z,11.00
2022-11-13T22:00:45.484Z,11.00
2022-11-13T22:03:32.817Z,11.00
2022-11-13T22:06:22.077Z,11.10
2022-11-13T22:09:17.707Z,11.00
2022-11-13T22:12:04.498Z,11.10
2022-11-13T22:14:51.491Z,11.10
2022-11-13T22:17:39.015Z,11.00
2022-11-13T22:20:25.374Z,11.00
2022-11-13T22:23:12.348Z,11.00
2022-11-13T22:26:05.517Z,11.00
2022-11-13T22:28:53.477Z,11.00
2022-11-13T22:31:40.366Z,11.00
2022-11-13T22:34:26.907Z,11.00
2022-11-13T22:37:14.040Z,10.90
2022-11-13T22:40:00.530Z,10.90
2022-11-13T22:42:48.363Z,10.80
2022-11-13T22:45:35.067Z,10.90
2022-11-13T22:48:21.788Z,10.90
2022-11-13T22:51:10.932Z,10.90
2022-11-13T22:53:59.417Z,10.90
2022-11-13T22:56:46.347Z,10.90
2022-11-13T22:59:34.583Z,10.90
2022-11-13T23:02:21.274Z,10.90
2022-11-13T23:05:08.627Z,10.90
2022-11-13T23:07:55.513Z,10.90
2022-11-13T23:10:42.379Z,10.80
2022-11-13T23:13:29.337Z,10.70
2022-11-13T23:16:18.306Z,10.80
2022-11-13T23:19:05.698Z,10.80
2022-11-13T23:21:52.561Z,10.80
2022-11-13T23:24:39.460Z,10.90
2022-11-13T23:27:26.306Z,10.90
2022-11-13T23:30:13.841Z,10.90
2022-11-13T23:33:01.702Z,10.90
2022-11-13T23:35:48.999Z,10.90
2022-11-13T23:38:36.214Z,10.90
2022-11-13T23:41:22.795Z,10.90
2022-11-13T23:44:09.998Z,10.90
2022-11-13T23:46:56.799Z,10.90
2022-11-13T23:49:44.991Z,10.90
2022-11-13T23:52:31.496Z,10.90
2022-11-13T23:55:19.051Z,10.80
2022-11-13T23:58:07.894Z,10.90
